createdAt,value
2018-07-03T00:01:15.553Z,99.05
2018-07-03T00:03:44.798Z,99.86
2018-07-03T00:06:13.849Z,99.50
2018-07-03T00:08:42.974Z,98.88
2018-07-03T00:11:12.105Z,99.36
2018-07-03T00:13:41.369Z,99.04
2018-07-03T00:16:14.485Z,99.11
2018-07-03T00:18:43.729Z,98.72
2018-07-03T00:21:12.908Z,98.91
2018-07-03T00:23:42.073Z,98.86
2018-07-03T00:26:11.437Z,98.91
2018-07-03T00:28:40.662Z,99.75
2018-07-03T00:31:09.897Z,100.00
2018-07-03T00:33:39.119Z,99.87
2018-07-03T00:36:08.155Z,100.00
2018-07-03T00:38:37.200Z,100.00
2018-07-03T00:41:06.377Z,100.00
2018-07-03T00:43:35.699Z,100.00
2018-07-03T00:46:04.836Z,100.00
2018-07-03T00:48:33.986Z,100.00
2018-07-03T00:51:03.403Z,100.00
2018-07-03T00:53:32.485Z,100.00
2018-07-03T00:56:01.794Z,100.00
2018-07-03T00:58:30.974Z,100.00
2018-07-03T01:01:00.167Z,100.00
2018-07-03T01:03:29.481Z,100.00
2018-07-03T01:05:58.665Z,100.00
2018-07-03T01:08:27.890Z,100.00
2018-07-03T01:10:57.074Z,100.00
2018-07-03T01:13:26.266Z,100.00
2018-07-03T01:15:55.561Z,99.36
2018-07-03T01:18:24.771Z,99.94
2018-07-03T01:20:53.985Z,99.80
2018-07-03T01:23:23.162Z,99.95
2018-07-03T01:25:52.357Z,100.00
2018-07-03T01:28:21.628Z,100.00
2018-07-03T01:30:50.899Z,100.00
2018-07-03T01:33:19.876Z,100.00
2018-07-03T01:35:48.950Z,100.00
2018-07-03T01:38:18.165Z,100.00
2018-07-03T01:40:47.341Z,99.83
2018-07-03T01:43:16.659Z,99.90
2018-07-03T01:45:45.762Z,100.00
2018-07-03T01:48:14.933Z,99.87
2018-07-03T01:50:44.133Z,100.00
2018-07-03T01:53:13.333Z,98.74
2018-07-03T01:55:42.538Z,97.75
2018-07-03T01:58:12.097Z,95.02
2018-07-03T02:00:41.102Z,95.80
2018-07-03T02:03:09.860Z,100.00
2018-07-03T02:05:38.709Z,100.00
2018-07-03T02:08:07.496Z,100.00
2018-07-03T02:10:36.249Z,100.00
2018-07-03T02:13:04.982Z,100.00
2018-07-03T02:15:33.724Z,100.00
2018-07-03T02:18:02.437Z,100.00
2018-07-03T02:20:31.134Z,100.00
2018-07-03T02:22:59.921Z,100.00
2018-07-03T02:25:28.682Z,100.00
2018-07-03T02:27:57.405Z,100.00
2018-07-03T02:30:26.125Z,100.00
2018-07-03T02:32:54.853Z,100.00
2018-07-03T02:35:23.606Z,100.00
2018-07-03T02:37:52.318Z,100.00
2018-07-03T02:40:21.069Z,100.00
2018-07-03T02:42:49.779Z,100.00
2018-07-03T02:45:18.550Z,100.00
2018-07-03T02:47:47.332Z,100.00
2018-07-03T02:50:16.074Z,100.00
2018-07-03T02:52:44.799Z,100.00
2018-07-03T02:55:13.527Z,100.00
2018-07-03T02:57:42.310Z,100.00
2018-07-03T03:00:11.088Z,100.00
2018-07-03T03:02:39.800Z,100.00
2018-07-03T03:05:08.562Z,100.00
2018-07-03T03:07:37.416Z,100.00
2018-07-03T03:10:06.199Z,100.00
2018-07-03T03:12:35.105Z,100.00
2018-07-03T03:15:03.941Z,100.00
2018-07-03T03:17:32.793Z,100.00
2018-07-03T03:20:01.546Z,100.00
2018-07-03T03:22:30.397Z,100.00
2018-07-03T03:24:59.226Z,100.00
2018-07-03T03:27:28.035Z,100.00
2018-07-03T03:29:56.852Z,100.00
2018-07-03T03:32:25.727Z,100.00
2018-07-03T03:34:54.526Z,100.00
2018-07-03T03:37:23.261Z,100.00
2018-07-03T03:39:51.977Z,100.00
2018-07-03T03:42:20.782Z,100.00
2018-07-03T03:44:52.534Z,100.00
2018-07-03T03:47:21.260Z,100.00
2018-07-03T03:49:50.060Z,100.00
2018-07-03T03:52:18.857Z,100.00
2018-07-03T03:54:47.560Z,100.00
2018-07-03T03:57:16.265Z,100.00
2018-07-03T03:59:44.957Z,100.00
2018-07-03T04:02:13.754Z,100.00
2018-07-03T04:04:42.478Z,96.60
2018-07-03T04:07:11.261Z,91.66
2018-07-03T04:09:40.032Z,89.51
2018-07-03T04:12:08.910Z,89.37
2018-07-03T04:14:37.703Z,93.25
2018-07-03T04:17:06.618Z,90.48
2018-07-03T04:19:35.402Z,91.00
2018-07-03T04:22:04.110Z,92.13
2018-07-03T04:24:32.824Z,94.79
2018-07-03T04:27:01.522Z,96.79
2018-07-03T04:29:30.267Z,97.91
2018-07-03T04:31:59.021Z,97.83
2018-07-03T04:34:27.885Z,100.00
2018-07-03T04:36:56.642Z,99.57
2018-07-03T04:39:25.437Z,100.00
2018-07-03T04:41:54.150Z,100.00
2018-07-03T04:44:22.857Z,100.00
2018-07-03T04:46:51.617Z,100.00
2018-07-03T04:49:20.312Z,100.00
2018-07-03T04:51:49.026Z,100.00
2018-07-03T04:54:17.749Z,100.00
2018-07-03T04:56:46.471Z,100.00
2018-07-03T04:59:15.213Z,97.87
2018-07-03T05:01:43.930Z,94.07
2018-07-03T05:04:12.662Z,93.58
2018-07-03T05:06:41.383Z,91.96
2018-07-03T05:09:11.318Z,88.04
2018-07-03T05:11:40.074Z,83.91
2018-07-03T05:14:09.406Z,77.77
2018-07-03T05:16:38.506Z,76.94
2018-07-03T05:19:07.381Z,78.88
2018-07-03T05:21:36.081Z,77.09
2018-07-03T05:24:04.791Z,76.03
2018-07-03T05:26:33.495Z,68.72
2018-07-03T05:29:02.193Z,56.88
2018-07-03T05:31:31.011Z,49.55
2018-07-03T05:33:59.809Z,43.54
2018-07-03T05:36:28.540Z,41.37
2018-07-03T05:38:57.362Z,39.58
2018-07-03T05:41:26.090Z,38.01
2018-07-03T05:43:55.134Z,35.40
2018-07-03T05:46:23.825Z,34.02
2018-07-03T05:48:52.677Z,32.64
2018-07-03T05:51:21.409Z,32.21
2018-07-03T05:53:50.136Z,34.79
2018-07-03T05:56:18.973Z,37.37
2018-07-03T05:58:47.957Z,37.06
2018-07-03T06:01:16.690Z,37.05
2018-07-03T06:03:45.419Z,35.85
2018-07-03T06:06:14.145Z,35.41
2018-07-03T06:08:42.867Z,35.38
2018-07-03T06:11:11.570Z,36.78
2018-07-03T06:13:40.290Z,35.62
2018-07-03T06:16:09.033Z,33.33
2018-07-03T06:18:37.740Z,34.81
2018-07-03T06:21:06.532Z,34.18
2018-07-03T06:23:35.285Z,33.25
2018-07-03T06:26:04.141Z,31.93
2018-07-03T06:28:32.894Z,33.99
2018-07-03T06:31:01.599Z,36.10
2018-07-03T06:33:30.329Z,35.32
2018-07-03T06:35:59.050Z,38.24
2018-07-03T06:38:27.774Z,38.15
2018-07-03T06:40:56.513Z,36.15
2018-07-03T06:43:25.202Z,36.40
2018-07-03T06:45:53.915Z,35.28
2018-07-03T06:48:22.630Z,36.71
2018-07-03T06:50:51.345Z,37.16
2018-07-03T06:53:20.058Z,36.42
2018-07-03T06:55:49.072Z,37.39
2018-07-03T06:58:17.839Z,36.19
2018-07-03T07:00:47.422Z,36.60
2018-07-03T07:03:16.136Z,37.20
2018-07-03T07:05:44.907Z,36.15
2018-07-03T07:08:13.673Z,34.54
2018-07-03T07:10:42.381Z,34.86
2018-07-03T07:13:11.147Z,32.46
2018-07-03T07:15:39.841Z,32.73
2018-07-03T07:18:08.564Z,34.66
2018-07-03T07:20:37.300Z,31.80
2018-07-03T07:23:06.339Z,31.81
2018-07-03T07:25:35.069Z,31.26
2018-07-03T07:28:03.786Z,29.47
2018-07-03T07:30:32.494Z,29.59
2018-07-03T07:33:01.184Z,28.44
2018-07-03T07:35:29.907Z,29.27
2018-07-03T07:37:58.614Z,27.77
2018-07-03T07:40:27.331Z,28.83
2018-07-03T07:42:56.197Z,28.25
2018-07-03T07:45:24.892Z,29.29
2018-07-03T07:47:53.590Z,29.82
2018-07-03T07:50:22.474Z,29.03
2018-07-03T07:52:51.161Z,31.19
2018-07-03T07:55:19.853Z,31.07
2018-07-03T07:57:48.576Z,29.72
2018-07-03T08:00:17.322Z,30.51
2018-07-03T08:02:46.011Z,32.45
2018-07-03T08:05:14.840Z,34.37
2018-07-03T08:07:43.521Z,38.08
2018-07-03T08:10:12.201Z,33.55
2018-07-03T08:12:40.968Z,34.09
2018-07-03T08:15:09.746Z,33.06
2018-07-03T08:17:38.477Z,30.43
2018-07-03T08:20:07.190Z,32.20
2018-07-03T08:22:35.900Z,32.16
2018-07-03T08:25:04.697Z,32.93
2018-07-03T08:27:33.397Z,29.69
2018-07-03T08:30:02.130Z,30.96
2018-07-03T08:32:30.910Z,29.33
2018-07-03T08:34:59.628Z,31.20
2018-07-03T08:37:28.507Z,32.25
2018-07-03T08:39:57.206Z,31.16
2018-07-03T08:42:25.950Z,31.49
2018-07-03T08:44:54.664Z,31.52
2018-07-03T08:47:23.353Z,30.57
2018-07-03T08:49:52.053Z,31.41
2018-07-03T08:52:20.738Z,33.95
2018-07-03T08:54:49.497Z,32.94
2018-07-03T08:57:18.178Z,32.81
2018-07-03T08:59:46.858Z,33.46
2018-07-03T09:02:15.598Z,34.39
2018-07-03T09:04:44.701Z,31.92
2018-07-03T09:07:13.457Z,30.48
2018-07-03T09:09:42.200Z,32.24
2018-07-03T09:12:10.920Z,30.29
2018-07-03T09:14:39.611Z,29.98
2018-07-03T09:17:13.535Z,30.34
2018-07-03T09:19:42.639Z,32.49
2018-07-03T09:22:11.346Z,29.60
2018-07-03T09:24:40.245Z,29.42
2018-07-03T09:27:09.150Z,29.16
2018-07-03T09:29:37.846Z,29.85
2018-07-03T09:32:06.777Z,28.03
2018-07-03T09:34:36.347Z,30.39
2018-07-03T09:37:05.295Z,28.37
2018-07-03T09:39:34.038Z,27.95
2018-07-03T09:42:02.731Z,28.50
2018-07-03T09:44:31.434Z,28.06
2018-07-03T09:47:00.195Z,30.39
2018-07-03T09:49:28.931Z,30.87
2018-07-03T09:51:57.755Z,28.98
2018-07-03T09:54:26.479Z,29.48
2018-07-03T09:56:55.182Z,31.54
2018-07-03T09:59:24.070Z,31.73
2018-07-03T10:01:52.829Z,32.30
2018-07-03T10:04:21.589Z,34.29
2018-07-03T10:06:51.219Z,32.92
2018-07-03T10:09:19.927Z,32.67
2018-07-03T10:11:48.681Z,32.63
2018-07-03T10:14:17.384Z,31.60
2018-07-03T10:16:46.130Z,31.97
2018-07-03T10:19:15.232Z,28.56
2018-07-03T10:21:43.941Z,30.98
2018-07-03T10:24:12.653Z,32.90
2018-07-03T10:26:41.438Z,34.92
2018-07-03T10:29:10.161Z,28.29
2018-07-03T10:31:38.973Z,30.23
2018-07-03T10:34:07.666Z,35.28
2018-07-03T10:36:36.372Z,30.61
2018-07-03T10:39:08.440Z,30.74
2018-07-03T10:41:37.505Z,32.13
2018-07-03T10:44:06.447Z,28.21
2018-07-03T10:46:35.194Z,29.89
2018-07-03T10:49:03.902Z,32.86
2018-07-03T10:51:32.662Z,30.14
2018-07-03T10:54:01.414Z,28.31
2018-07-03T10:56:30.123Z,28.11
2018-07-03T10:58:58.820Z,28.44
2018-07-03T11:01:27.634Z,29.81
2018-07-03T11:03:56.371Z,32.60
2018-07-03T11:06:25.094Z,32.86
2018-07-03T11:08:53.793Z,31.90
2018-07-03T11:11:22.506Z,29.59
2018-07-03T11:13:51.298Z,32.07
2018-07-03T11:16:19.960Z,30.98
2018-07-03T11:18:48.702Z,31.47
2018-07-03T11:21:17.607Z,30.58
2018-07-03T11:23:46.359Z,31.85
2018-07-03T11:26:15.140Z,30.48
2018-07-03T11:28:43.951Z,27.24
2018-07-03T11:31:12.699Z,28.78
2018-07-03T11:33:41.474Z,30.87
2018-07-03T11:36:10.158Z,32.63
2018-07-03T11:38:38.874Z,32.43
2018-07-03T11:41:07.623Z,30.94
2018-07-03T11:43:36.518Z,30.36
2018-07-03T11:46:05.221Z,31.61
2018-07-03T11:48:33.950Z,31.50
2018-07-03T11:51:02.682Z,27.52
2018-07-03T11:53:31.499Z,29.90
2018-07-03T11:56:00.194Z,32.49
2018-07-03T11:58:28.984Z,31.65
2018-07-03T12:00:57.846Z,31.10
2018-07-03T12:03:26.590Z,30.39
2018-07-03T12:05:55.363Z,29.52
2018-07-03T12:08:24.133Z,31.58
2018-07-03T12:10:53.067Z,30.47
2018-07-03T12:13:21.862Z,31.36
2018-07-03T12:15:50.581Z,30.23
2018-07-03T12:18:24.522Z,31.36
2018-07-03T12:20:53.357Z,30.17
2018-07-03T12:23:22.124Z,29.28
2018-07-03T12:25:50.849Z,31.34
2018-07-03T12:28:19.647Z,29.07
2018-07-03T12:30:48.379Z,28.73
2018-07-03T12:33:17.102Z,31.33
2018-07-03T12:35:45.840Z,32.79
2018-07-03T12:38:14.591Z,37.25
2018-07-03T12:40:43.319Z,36.48
2018-07-03T12:43:12.080Z,39.62
2018-07-03T12:45:40.848Z,40.62
2018-07-03T12:48:09.557Z,40.12
2018-07-03T12:50:38.285Z,40.25
2018-07-03T12:53:07.441Z,42.17
2018-07-03T12:55:36.142Z,41.75
2018-07-03T12:58:04.892Z,40.84
2018-07-03T13:00:33.614Z,45.11
2018-07-03T13:03:02.330Z,44.09
2018-07-03T13:05:31.147Z,45.89
2018-07-03T13:07:59.909Z,43.45
2018-07-03T13:10:28.749Z,42.25
2018-07-03T13:12:57.490Z,41.21
2018-07-03T13:15:26.368Z,43.52
2018-07-03T13:17:55.099Z,43.27
2018-07-03T13:20:23.810Z,42.45
2018-07-03T13:22:52.633Z,42.02
2018-07-03T13:25:21.520Z,43.16
2018-07-03T13:27:50.253Z,43.37
2018-07-03T13:30:18.971Z,42.14
2018-07-03T13:32:47.698Z,41.31
2018-07-03T13:35:16.436Z,41.88
2018-07-03T13:37:45.145Z,41.74
2018-07-03T13:40:13.850Z,40.63
2018-07-03T13:42:42.831Z,42.56
2018-07-03T13:45:11.602Z,44.55
2018-07-03T13:47:40.409Z,45.16
2018-07-03T13:50:09.118Z,42.01
2018-07-03T13:52:37.825Z,42.35
2018-07-03T13:55:06.862Z,41.83
2018-07-03T13:57:35.588Z,43.48
2018-07-03T14:00:04.336Z,42.84
2018-07-03T14:02:33.074Z,43.22
2018-07-03T14:05:01.935Z,42.06
2018-07-03T14:07:36.923Z,43.80
2018-07-03T14:10:11.000Z,44.05
2018-07-03T14:12:45.001Z,42.83
2018-07-03T14:15:18.483Z,44.35
2018-07-03T14:17:50.248Z,46.26
2018-07-03T14:20:19.759Z,47.30
2018-07-03T14:22:48.874Z,45.36
2018-07-03T14:25:17.897Z,44.41
2018-07-03T14:27:51.156Z,44.30
2018-07-03T14:30:23.019Z,44.40
2018-07-03T14:32:52.321Z,44.94
2018-07-03T14:35:21.575Z,44.37
2018-07-03T14:37:50.738Z,47.94
2018-07-03T14:40:19.954Z,46.76
2018-07-03T14:42:49.147Z,47.22
2018-07-03T14:45:18.305Z,46.99
2018-07-03T14:47:47.503Z,45.55
2018-07-03T14:50:16.811Z,46.39
2018-07-03T14:52:46.097Z,47.03
2018-07-03T14:55:15.596Z,47.93
2018-07-03T14:57:44.818Z,48.41
2018-07-03T15:00:14.100Z,48.44
2018-07-03T15:02:43.498Z,47.36
2018-07-03T15:05:12.870Z,46.24
2018-07-03T15:07:41.634Z,45.59
2018-07-03T15:10:10.354Z,47.20
2018-07-03T15:12:39.075Z,44.72
2018-07-03T15:15:07.836Z,45.57
2018-07-03T15:17:36.606Z,45.86
2018-07-03T15:20:05.360Z,43.19
2018-07-03T15:22:34.169Z,44.13
2018-07-03T15:25:04.105Z,43.49
2018-07-03T15:27:37.089Z,43.81
2018-07-03T15:30:06.450Z,44.31
2018-07-03T15:32:35.762Z,44.89
2018-07-03T15:35:04.775Z,44.30
2018-07-03T15:37:34.063Z,42.90
2018-07-03T15:40:03.397Z,44.49
2018-07-03T15:42:32.810Z,45.47
2018-07-03T15:45:08.640Z,46.42
2018-07-03T15:47:37.628Z,48.30
2018-07-03T15:50:08.305Z,47.97
2018-07-03T15:52:37.508Z,47.17
2018-07-03T15:55:06.933Z,45.92
2018-07-03T15:57:36.345Z,47.49
2018-07-03T16:00:06.437Z,48.64
2018-07-03T16:02:35.822Z,49.09
2018-07-03T16:05:17.942Z,49.15
2018-07-03T16:08:06.782Z,49.97
2018-07-03T16:10:35.636Z,50.28
2018-07-03T16:13:04.403Z,50.49
2018-07-03T16:15:33.210Z,50.36
2018-07-03T16:18:01.910Z,50.99
2018-07-03T16:20:35.752Z,52.32
2018-07-03T16:23:04.606Z,51.50
2018-07-03T16:25:33.450Z,51.42
2018-07-03T16:28:02.153Z,52.17
2018-07-03T16:30:30.875Z,52.89
2018-07-03T16:32:59.606Z,55.64
2018-07-03T16:35:28.335Z,55.05
2018-07-03T16:37:57.082Z,57.15
2018-07-03T16:40:25.798Z,56.24
2018-07-03T16:42:54.500Z,57.40
2018-07-03T16:45:23.238Z,57.19
2018-07-03T16:47:51.994Z,57.19
2018-07-03T16:50:20.733Z,58.11
2018-07-03T16:52:49.643Z,59.42
2018-07-03T16:55:18.345Z,60.39
2018-07-03T16:57:47.111Z,61.56
2018-07-03T17:00:22.255Z,61.51
2018-07-03T17:02:51.020Z,62.65
2018-07-03T17:05:19.777Z,62.87
2018-07-03T17:07:48.576Z,62.70
2018-07-03T17:10:17.305Z,64.47
2018-07-03T17:12:46.427Z,65.68
2018-07-03T17:15:15.393Z,66.49
2018-07-03T17:17:44.117Z,68.07
2018-07-03T17:20:13.042Z,69.47
2018-07-03T17:22:41.769Z,69.85
2018-07-03T17:25:10.521Z,71.42
2018-07-03T17:27:39.275Z,72.54
2018-07-03T17:30:08.016Z,72.70
2018-07-03T17:32:36.768Z,73.62
2018-07-03T17:35:05.635Z,73.66
2018-07-03T17:37:34.357Z,74.54
2018-07-03T17:40:14.231Z,74.25
2018-07-03T17:42:53.987Z,76.92
2018-07-03T17:45:34.582Z,77.59
2018-07-03T17:48:05.678Z,76.55
2018-07-03T17:50:34.866Z,77.48
2018-07-03T17:53:03.579Z,77.94
2018-07-03T17:55:33.020Z,79.77
2018-07-03T17:58:01.839Z,79.38
2018-07-03T18:00:31.221Z,79.89
2018-07-03T18:03:00.166Z,80.68
2018-07-03T18:05:29.846Z,81.53
2018-07-03T18:07:58.929Z,81.04
2018-07-03T18:10:27.743Z,83.02
2018-07-03T18:12:56.449Z,85.15
2018-07-03T18:15:25.270Z,87.25
2018-07-03T18:17:53.953Z,86.43
2018-07-03T18:20:22.641Z,86.91
2018-07-03T18:22:51.354Z,86.87
2018-07-03T18:25:20.055Z,86.59
2018-07-03T18:27:48.801Z,87.21
2018-07-03T18:30:17.590Z,85.15
2018-07-03T18:32:46.395Z,85.23
2018-07-03T18:35:15.102Z,85.30
2018-07-03T18:37:43.845Z,87.99
2018-07-03T18:40:12.619Z,90.10
2018-07-03T18:42:41.323Z,90.76
2018-07-03T18:45:10.090Z,88.61
2018-07-03T18:47:38.914Z,89.45
2018-07-03T18:50:07.661Z,89.07
2018-07-03T18:52:36.411Z,90.07
2018-07-03T18:55:05.255Z,89.31
2018-07-03T18:57:34.057Z,90.52
2018-07-03T19:00:02.759Z,90.92
2018-07-03T19:02:31.481Z,92.10
2018-07-03T19:05:04.289Z,93.70
2018-07-03T19:07:33.202Z,94.07
2018-07-03T19:10:02.051Z,93.77
2018-07-03T19:12:30.757Z,92.88
2018-07-03T19:14:59.481Z,93.88
2018-07-03T19:17:28.284Z,93.95
2018-07-03T19:19:56.985Z,93.73
2018-07-03T19:22:25.812Z,93.59
2018-07-03T19:24:54.594Z,93.99
2018-07-03T19:27:23.393Z,95.24
2018-07-03T19:29:52.191Z,94.38
2018-07-03T19:32:21.021Z,94.99
2018-07-03T19:34:49.857Z,95.39
2018-07-03T19:37:18.684Z,95.05
2018-07-03T19:39:47.436Z,95.21
2018-07-03T19:42:16.262Z,95.54
2018-07-03T19:44:45.068Z,95.06
2018-07-03T19:47:13.814Z,95.70
2018-07-03T19:49:42.729Z,94.83
2018-07-03T19:52:11.688Z,94.79
2018-07-03T19:54:40.404Z,95.44
2018-07-03T19:57:09.181Z,94.82
2018-07-03T19:59:37.970Z,96.41
2018-07-03T20:02:06.790Z,95.85
2018-07-03T20:04:35.578Z,95.84
2018-07-03T20:07:04.358Z,96.95
2018-07-03T20:09:33.097Z,97.31
2018-07-03T20:12:02.067Z,96.70
2018-07-03T20:14:30.906Z,96.69
2018-07-03T20:17:00.556Z,97.07
2018-07-03T20:19:29.404Z,97.05
2018-07-03T20:21:58.162Z,97.78
2018-07-03T20:24:26.911Z,97.67
2018-07-03T20:26:55.662Z,97.36
2018-07-03T20:29:24.386Z,98.15
2018-07-03T20:31:53.113Z,98.09
2018-07-03T20:34:21.938Z,98.67
2018-07-03T20:36:50.721Z,98.72
2018-07-03T20:39:19.436Z,100.00
2018-07-03T20:41:48.165Z,100.00
2018-07-03T20:44:16.988Z,100.00
2018-07-03T20:46:45.732Z,99.67
2018-07-03T20:49:14.597Z,99.75
2018-07-03T20:51:43.333Z,100.00
2018-07-03T20:54:12.213Z,100.00
2018-07-03T20:56:40.977Z,100.00
2018-07-03T20:59:09.729Z,100.00
2018-07-03T21:01:38.439Z,100.00
2018-07-03T21:04:07.225Z,100.00
2018-07-03T21:06:35.997Z,100.00
2018-07-03T21:09:06.182Z,100.00
2018-07-03T21:11:35.014Z,100.00
2018-07-03T21:14:03.821Z,100.00
2018-07-03T21:16:32.633Z,100.00
2018-07-03T21:19:01.337Z,100.00
2018-07-03T21:21:30.034Z,100.00
2018-07-03T21:23:58.801Z,100.00
2018-07-03T21:26:27.502Z,100.00
2018-07-03T21:28:56.242Z,100.00
2018-07-03T21:31:24.949Z,100.00
2018-07-03T21:33:53.834Z,100.00
2018-07-03T21:36:22.706Z,100.00
2018-07-03T21:38:51.480Z,100.00
2018-07-03T21:41:20.198Z,100.00
2018-07-03T21:43:48.890Z,100.00
2018-07-03T21:46:17.642Z,100.00
2018-07-03T21:48:46.444Z,100.00
2018-07-03T21:51:15.144Z,100.00
2018-07-03T21:53:43.878Z,100.00
2018-07-03T21:56:12.573Z,99.59
2018-07-03T21:58:41.269Z,99.39
2018-07-03T22:01:09.957Z,99.00
2018-07-03T22:03:38.722Z,98.98
2018-07-03T22:06:07.498Z,99.46
2018-07-03T22:08:36.216Z,99.53
2018-07-03T22:11:04.953Z,100.00
2018-07-03T22:13:33.653Z,100.00
2018-07-03T22:16:02.383Z,100.00
2018-07-03T22:18:31.152Z,100.00
2018-07-03T22:20:59.890Z,100.00
2018-07-03T22:23:28.615Z,100.00
2018-07-03T22:25:57.366Z,100.00
2018-07-03T22:28:26.076Z,100.00
2018-07-03T22:30:54.859Z,100.00
2018-07-03T22:33:23.590Z,100.00
2018-07-03T22:35:52.348Z,100.00
2018-07-03T22:38:21.049Z,100.00
2018-07-03T22:40:49.752Z,100.00
2018-07-03T22:43:18.513Z,100.00
2018-07-03T22:45:47.211Z,100.00
2018-07-03T22:48:16.038Z,100.00
2018-07-03T22:50:44.743Z,100.00
2018-07-03T22:53:13.449Z,100.00
2018-07-03T22:55:44.774Z,100.00
2018-07-03T22:58:19.943Z,100.00
2018-07-03T23:00:54.360Z,100.00
2018-07-03T23:03:27.425Z,100.00
2018-07-03T23:06:00.472Z,100.00
2018-07-03T23:08:31.663Z,100.00
2018-07-03T23:11:00.483Z,100.00
2018-07-03T23:13:29.250Z,100.00
2018-07-03T23:15:57.983Z,100.00
2018-07-03T23:18:26.739Z,100.00
2018-07-03T23:20:55.584Z,100.00
2018-07-03T23:23:24.357Z,100.00
2018-07-03T23:25:53.052Z,100.00
2018-07-03T23:28:21.815Z,100.00
2018-07-03T23:30:50.628Z,100.00
2018-07-03T23:33:19.477Z,100.00
2018-07-03T23:35:48.190Z,100.00
2018-07-03T23:38:16.918Z,100.00
2018-07-03T23:40:46.350Z,100.00
2018-07-03T23:43:15.042Z,100.00
2018-07-03T23:46:04.754Z,100.00
2018-07-03T23:48:44.541Z,100.00
2018-07-03T23:51:24.290Z,100.00
2018-07-03T23:54:04.047Z,100.00
2018-07-03T23:56:43.722Z,100.00
2018-07-03T23:59:23.487Z,100.00
